Time;durP1;ratioP1;P1;durP2;ratioP2;P2;SDS_P1;SDS_P2;PMS_P1;PMS_P2;Temp;Humidity;BMP_temperature;BMP_pressure;BME280_temperature;BME280_humidity;BME280_pressure;Samples;Min_cycle;Max_cycle;Signal;HPM_P1;HPM_P2
2023/08/27 00:01:23;;;;;;;4.80;3.53;;;14.10;43.10;;;;;;5118973;28;20491;-61
2023/08/27 00:03:51;;;;;;;6.50;3.80;;;14.00;56.80;;;;;;5120321;28;20550;-61
2023/08/27 00:06:18;;;;;;;5.07;3.53;;;14.00;99.90;;;;;;5119837;28;20459;-60
2023/08/27 00:08:46;;;;;;;4.67;3.43;;;14.10;11.10;;;;;;5119124;28;20546;-60
2023/08/27 00:11:13;;;;;;;5.53;3.70;;;14.10;99.90;;;;;;5119516;28;20554;-61
2023/08/27 00:13:40;;;;;;;5.00;4.47;;;14.10;53.30;;;;;;5118973;28;20516;-61
2023/08/27 00:16:08;;;;;;;4.83;3.50;;;14.20;47.90;;;;;;5119279;28;20755;-61
2023/08/27 00:18:36;;;;;;;4.13;3.50;;;14.20;25.80;;;;;;5117954;28;20584;-61
2023/08/27 00:21:04;;;;;;;4.77;3.73;;;14.20;66.80;;;;;;5118979;28;20456;-61
2023/08/27 00:23:31;;;;;;;6.37;3.37;;;14.10;99.90;;;;;;5119496;28;20466;-61
2023/08/27 00:25:59;;;;;;;4.73;4.10;;;14.10;99.90;;;;;;5119694;28;20460;-60
2023/08/27 00:28:26;;;;;;;4.73;4.07;;;14.00;99.90;;;;;;5115215;28;20540;-61
2023/08/27 00:31:02;;;;;;;4.33;3.93;;;13.90;99.90;;;;;;5119066;28;20550;-60
2023/08/27 00:33:30;;;;;;;5.10;3.80;;;13.90;99.90;;;;;;5119768;28;20512;-61
2023/08/27 00:35:58;;;;;;;4.60;4.20;;;13.90;99.90;;;;;;5119510;28;20489;-61
2023/08/27 00:38:26;;;;;;;7.60;3.60;;;13.90;99.90;;;;;;5119652;28;20460;-61
2023/08/27 00:40:53;;;;;;;7.50;4.30;;;13.90;99.90;;;;;;5118552;28;20465;-61
2023/08/27 00:43:20;;;;;;;5.77;3.77;;;14.00;99.90;;;;;;5119387;28;20506;-60
2023/08/27 00:45:48;;;;;;;5.33;4.20;;;14.00;99.90;;;;;;5119270;28;20952;-60
2023/08/27 00:48:15;;;;;;;4.67;3.80;;;14.00;99.90;;;;;;5118700;28;20456;-60
2023/08/27 00:50:43;;;;;;;6.27;4.40;;;14.00;99.90;;;;;;5118117;28;20554;-60
2023/08/27 00:53:12;;;;;;;5.77;3.87;;;14.00;99.90;;;;;;5119306;28;20492;-60
2023/08/27 00:55:40;;;;;;;4.47;3.80;;;14.00;99.90;;;;;;5118623;28;20901;-61
2023/08/27 00:58:07;;;;;;;5.23;4.53;;;14.00;99.90;;;;;;5119097;28;20558;-60
2023/08/27 01:00:34;;;;;;;8.27;3.60;;;13.90;99.90;;;;;;5118832;28;20578;-61
2023/08/27 01:03:01;;;;;;;5.37;4.50;;;13.80;99.90;;;;;;5118772;28;20553;-60
2023/08/27 01:05:29;;;;;;;6.57;4.10;;;13.80;99.90;;;;;;5118247;28;20492;-60
2023/08/27 01:08:02;;;;;;;8.53;4.23;;;13.80;99.90;;;;;;5118767;28;20487;-60
2023/08/27 01:10:41;;;;;;;5.73;3.50;;;13.70;99.90;;;;;;5118974;28;20879;-61
2023/08/27 01:13:12;;;;;;;5.13;4.63;;;13.70;99.90;;;;;;5118663;28;20891;-60
2023/08/27 01:15:41;;;;;;;5.53;4.37;;;13.70;99.90;;;;;;5117893;28;20459;-60
2023/08/27 01:18:10;;;;;;;6.00;4.70;;;13.60;99.90;;;;;;5116524;28;20459;-60
2023/08/27 01:20:37;;;;;;;4.97;4.37;;;13.70;99.90;;;;;;5118255;28;20922;-60
2023/08/27 01:23:06;;;;;;;5.77;4.17;;;13.70;99.90;;;;;;5118579;28;20459;-60
2023/08/27 01:25:40;;;;;;;4.30;3.53;;;13.70;99.90;;;;;;5118578;28;20542;-62
2023/08/27 01:28:13;;;;;;;7.80;4.43;;;13.60;99.90;;;;;;5118004;28;20502;-60
2023/08/27 01:30:50;;;;;;;5.30;3.90;;;13.60;99.90;;;;;;5116923;28;20555;-60
2023/08/27 01:33:26;;;;;;;5.63;4.10;;;13.60;99.90;;;;;;5118120;28;20459;-61
2023/08/27 01:35:54;;;;;;;5.07;4.03;;;13.40;99.90;;;;;;5118050;28;20803;-61
2023/08/27 01:38:23;;;;;;;4.80;4.30;;;13.40;99.90;;;;;;5118397;28;20462;-61
2023/08/27 01:40:50;;;;;;;4.50;3.70;;;13.40;99.90;;;;;;5117248;28;20523;-61
2023/08/27 01:43:18;;;;;;;4.93;3.73;;;13.40;99.90;;;;;;5117489;28;20555;-61
2023/08/27 01:45:45;;;;;;;5.30;4.40;;;13.30;99.90;;;;;;5118453;28;20458;-61
2023/08/27 01:48:12;;;;;;;8.30;4.47;;;13.30;99.90;;;;;;5118469;28;20553;-61
2023/08/27 01:50:40;;;;;;;5.30;3.97;;;13.20;99.90;;;;;;5117581;28;20538;-60
2023/08/27 01:53:07;;;;;;;5.57;4.33;;;13.20;99.90;;;;;;5116372;28;20470;-60
2023/08/27 01:55:38;;;;;;;8.20;4.40;;;13.10;1.00;;;;;;5117227;28;20463;-60
2023/08/27 01:58:05;;;;;;;4.33;3.93;;;13.20;14.70;;;;;;5118017;27;20462;-60
2023/08/27 02:00:32;;;;;;;6.73;4.60;;;13.30;21.30;;;;;;5117763;28;20570;-60
2023/08/27 02:02:59;;;;;;;5.20;4.57;;;13.30;49.00;;;;;;5117785;28;20508;-60
2023/08/27 02:05:27;;;;;;;5.07;4.57;;;13.30;27.50;;;;;;5132003;27;20490;-60
2023/08/27 02:07:54;;;;;;;5.43;4.63;;;13.30;15.30;;;;;;5123508;27;20463;-60
2023/08/27 02:10:21;;;;;;;4.63;3.97;;;13.30;41.20;;;;;;5117721;28;20487;-60
2023/08/27 02:12:50;;;;;;;8.33;4.53;;;13.30;99.90;;;;;;5117345;28;20539;-60
2023/08/27 02:15:17;;;;;;;7.33;4.53;;;13.40;64.50;;;;;;5117072;28;20505;-60
2023/08/27 02:17:44;;;;;;;7.40;4.33;;;13.30;99.90;;;;;;5116718;28;20475;-60
2023/08/27 02:20:13;;;;;;;5.73;3.97;;;13.30;99.90;;;;;;5116564;28;20585;-61
2023/08/27 02:22:40;;;;;;;5.43;4.43;;;13.40;99.90;;;;;;5115306;28;20907;-60
2023/08/27 02:25:08;;;;;;;4.60;4.03;;;13.40;99.90;;;;;;5115969;28;20455;-60
2023/08/27 02:27:35;;;;;;;6.73;4.20;;;13.40;99.90;;;;;;5115431;28;20471;-61
2023/08/27 02:30:04;;;;;;;4.60;4.00;;;13.30;99.90;;;;;;5116188;28;20570;-61
2023/08/27 02:32:31;;;;;;;6.17;4.47;;;13.30;97.20;;;;;;5115286;28;20515;-61
2023/08/27 02:34:59;;;;;;;6.53;4.10;;;13.30;99.90;;;;;;5115324;28;20469;-60
2023/08/27 02:37:26;;;;;;;7.07;4.67;;;13.40;98.60;;;;;;5117115;28;20545;-60
2023/08/27 02:39:53;;;;;;;4.90;4.00;;;13.30;93.10;;;;;;5117259;28;20586;-60
2023/08/27 02:42:20;;;;;;;5.37;4.30;;;13.40;36.70;;;;;;5119784;28;20478;-60
2023/08/27 02:44:47;;;;;;;4.80;3.90;;;13.30;1.00;;;;;;5120203;28;20553;-60
2023/08/27 02:47:16;;;;;;;4.70;4.30;;;13.30;33.90;;;;;;5121283;28;20460;-60
2023/08/27 02:49:43;;;;;;;5.13;4.00;;;13.20;66.50;;;;;;5121584;28;20472;-60
2023/08/27 02:52:11;;;;;;;6.53;4.53;;;13.20;99.90;;;;;;5121601;28;20554;-60
2023/08/27 02:54:38;;;;;;;6.73;4.47;;;13.30;99.90;;;;;;5120450;28;20459;-60
2023/08/27 02:57:05;;;;;;;5.37;4.43;;;13.30;87.50;;;;;;5121108;28;20549;-60
2023/08/27 02:59:33;;;;;;;4.30;3.80;;;13.30;50.30;;;;;;5120524;28;20483;-60
2023/08/27 03:02:00;;;;;;;4.90;4.40;;;13.40;57.10;;;;;;5121297;28;20565;-60
2023/08/27 03:04:28;;;;;;;4.43;4.03;;;13.30;11.20;;;;;;5120790;28;21005;-61
2023/08/27 03:06:55;;;;;;;4.83;3.97;;;13.30;45.60;;;;;;5120521;28;20480;-60
2023/08/27 03:09:24;;;;;;;4.30;3.90;;;13.30;1.00;;;;;;5121274;28;20549;-60
2023/08/27 03:11:51;;;;;;;4.60;4.20;;;13.20;1.00;;;;;;5121612;28;20471;-61
2023/08/27 03:14:18;;;;;;;4.60;4.00;;;13.20;1.00;;;;;;5121413;28;20462;-61
2023/08/27 03:16:45;;;;;;;4.73;4.20;;;13.10;14.90;;;;;;5121213;28;20455;-60
2023/08/27 03:19:12;;;;;;;4.70;3.83;;;13.10;56.00;;;;;;5119355;28;20459;-61
2023/08/27 03:21:41;;;;;;;8.37;5.13;;;13.10;99.90;;;;;;5120020;28;20498;-60
2023/08/27 03:24:09;;;;;;;8.20;4.17;;;13.00;84.10;;;;;;5121203;28;20466;-61
2023/08/27 03:26:36;;;;;;;4.17;3.70;;;13.00;99.90;;;;;;5120489;28;20462;-60
2023/08/27 03:29:03;;;;;;;4.50;4.00;;;13.00;99.90;;;;;;5120061;28;20474;-60
2023/08/27 03:31:31;;;;;;;5.63;4.20;;;13.00;99.90;;;;;;5120673;28;20460;-60
2023/08/27 03:33:58;;;;;;;8.40;4.40;;;12.90;99.90;;;;;;5120773;28;20491;-60
2023/08/27 03:36:25;;;;;;;4.53;4.13;;;12.90;15.40;;;;;;5120222;28;20479;-60
2023/08/27 03:38:54;;;;;;;4.40;3.77;;;13.00;8.80;;;;;;5118336;28;20463;-60
2023/08/27 03:41:21;;;;;;;4.77;3.70;;;13.00;1.00;;;;;;5120151;28;20490;-61
2023/08/27 03:43:48;;;;;;;5.23;4.20;;;13.00;14.90;;;;;;5120747;28;20505;-61
2023/08/27 03:46:16;;;;;;;4.47;3.43;;;13.00;1.00;;;;;;5120377;28;20462;-60
2023/08/27 03:48:43;;;;;;;4.17;3.50;;;13.00;1.00;;;;;;5120226;28;20928;-61
2023/08/27 03:51:10;;;;;;;5.93;4.33;;;12.90;1.00;;;;;;5101814;28;20913;-60
2023/08/27 03:53:37;;;;;;;6.60;4.03;;;12.80;1.00;;;;;;5098891;28;20944;-61
2023/08/27 03:56:06;;;;;;;4.90;3.70;;;12.80;14.60;;;;;;5099642;28;20456;-61
2023/08/27 03:58:33;;;;;;;6.60;4.13;;;12.70;38.60;;;;;;5100881;28;20464;-60
2023/08/27 04:01:01;;;;;;;5.80;4.40;;;12.70;99.90;;;;;;5099341;28;20488;-61
2023/08/27 04:03:28;;;;;;;4.97;4.50;;;12.80;99.90;;;;;;5099776;28;20492;-61
2023/08/27 04:05:55;;;;;;;4.30;3.80;;;12.90;99.90;;;;;;5099777;28;20456;-61
2023/08/27 04:08:23;;;;;;;5.27;4.10;;;13.00;99.90;;;;;;5099612;28;20569;-61
2023/08/27 04:10:50;;;;;;;6.67;3.83;;;13.00;99.90;;;;;;5099366;28;20828;-61
2023/08/27 04:13:19;;;;;;;5.13;4.60;;;13.10;74.30;;;;;;5098866;28;20457;-60
2023/08/27 04:15:47;;;;;;;4.30;3.90;;;13.10;20.80;;;;;;5112274;28;20550;-61
2023/08/27 04:18:14;;;;;;;6.17;4.67;;;13.10;1.00;;;;;;5106647;28;20460;-61
2023/08/27 04:20:41;;;;;;;4.03;3.47;;;13.20;1.00;;;;;;5099222;28;20527;-61
2023/08/27 04:23:08;;;;;;;5.63;4.23;;;13.20;99.90;;;;;;5098640;28;20463;-61
2023/08/27 04:25:36;;;;;;;7.30;3.80;;;13.20;77.80;;;;;;5100063;28;20464;-61
2023/08/27 04:28:04;;;;;;;4.77;3.90;;;13.10;59.80;;;;;;5098791;28;20460;-60
2023/08/27 04:30:33;;;;;;;3.87;3.47;;;13.10;99.90;;;;;;5118135;28;20467;-60
2023/08/27 04:33:00;;;;;;;9.10;4.10;;;13.20;99.90;;;;;;5118413;28;20455;-61
2023/08/27 04:35:27;;;;;;;5.77;3.63;;;13.30;99.90;;;;;;5119130;28;20952;-61
2023/08/27 04:37:54;;;;;;;3.97;3.27;;;13.40;92.60;;;;;;5117398;28;20783;-61
2023/08/27 04:40:22;;;;;;;5.90;3.40;;;13.50;97.70;;;;;;5118765;28;20858;-60
2023/08/27 04:42:49;;;;;;;4.80;3.63;;;13.50;34.90;;;;;;5119359;28;20459;-61
2023/08/27 04:45:16;;;;;;;6.33;3.63;;;13.50;1.00;;;;;;5119138;28;20783;-61
2023/08/27 04:47:45;;;;;;;4.20;3.80;;;13.30;1.00;;;;;;5115684;28;20517;-61
2023/08/27 04:50:12;;;;;;;4.27;3.87;;;13.30;1.00;;;;;;5078932;28;20863;-61
2023/08/27 04:52:39;;;;;;;3.83;3.43;;;13.30;1.00;;;;;;5086125;28;20464;-61
2023/08/27 04:55:08;;;;;;;5.30;4.30;;;13.30;1.00;;;;;;5098680;28;20514;-61
2023/08/27 04:57:35;;;;;;;4.50;3.40;;;13.20;52.70;;;;;;5098452;28;20530;-61
2023/08/27 05:00:05;;;;;;;5.50;3.63;;;13.30;28.50;;;;;;5098310;28;20561;-61
2023/08/27 05:02:34;;;;;;;4.97;4.33;;;13.30;52.00;;;;;;5099063;28;20471;-61
2023/08/27 05:05:03;;;;;;;3.70;3.30;;;13.40;56.80;;;;;;5114838;28;20542;-61
2023/08/27 05:07:30;;;;;;;4.10;3.80;;;13.40;99.90;;;;;;5118369;28;20487;-61
2023/08/27 05:09:58;;;;;;;5.53;3.97;;;13.40;99.90;;;;;;5118480;28;20795;-61
2023/08/27 05:12:26;;;;;;;3.70;3.37;;;13.50;99.90;;;;;;5119279;28;20487;-61
2023/08/27 05:14:54;;;;;;;4.10;3.50;;;13.50;1.00;;;;;;5103606;28;20464;-61
2023/08/27 05:17:21;;;;;;;4.77;4.27;;;13.50;1.00;;;;;;5098091;28;20485;-61
2023/08/27 05:19:48;;;;;;;5.10;3.57;;;13.50;1.00;;;;;;5116676;28;20831;-61
2023/08/27 05:22:17;;;;;;;4.40;3.53;;;13.60;1.00;;;;;;5118625;28;20466;-61
2023/08/27 05:24:44;;;;;;;4.70;3.80;;;13.80;1.00;;;;;;5116323;28;20542;-61
2023/08/27 05:27:11;;;;;;;5.07;3.80;;;13.80;1.00;;;;;;5118183;28;20466;-61
2023/08/27 05:29:38;;;;;;;8.87;4.00;;;13.90;1.00;;;;;;5118045;28;20550;-56
2023/08/27 05:32:06;;;;;;;5.73;3.17;;;13.90;1.00;;;;;;5118498;28;20451;-58
2023/08/27 05:34:33;;;;;;;7.00;3.60;;;14.00;1.00;;;;;;5115309;28;20463;-59
2023/08/27 05:37:01;;;;;;;3.90;3.20;;;14.00;1.00;;;;;;5116893;28;20533;-61
2023/08/27 05:39:29;;;;;;;3.77;3.20;;;14.00;1.00;;;;;;5118413;28;20491;-62
2023/08/27 05:41:56;;;;;;;5.73;4.77;;;14.10;57.50;;;;;;5118334;28;20765;-63
2023/08/27 05:44:24;;;;;;;4.60;3.37;;;14.10;99.90;;;;;;5118556;28;20542;-63
2023/08/27 05:46:51;;;;;;;5.90;3.60;;;14.10;99.90;;;;;;5117402;28;20542;-63
2023/08/27 05:49:18;;;;;;;4.10;3.50;;;14.20;99.90;;;;;;5118169;28;20559;-64
2023/08/27 05:51:46;;;;;;;4.50;3.40;;;14.10;99.90;;;;;;5118322;28;20455;-64
2023/08/27 05:54:14;;;;;;;5.63;4.10;;;14.10;99.90;;;;;;5118525;28;20464;-65
2023/08/27 05:56:43;;;;;;;6.93;3.57;;;14.20;99.90;;;;;;5117132;28;20931;-65
2023/08/27 05:59:13;;;;;;;4.40;4.00;;;14.30;99.90;;;;;;5117650;28;20555;-66
2023/08/27 06:01:41;;;;;;;5.97;3.47;;;14.30;99.90;;;;;;5117376;28;20487;-68
2023/08/27 06:04:09;;;;;;;4.50;3.70;;;14.40;99.90;;;;;;5117931;28;20470;-69
2023/08/27 06:06:38;;;;;;;4.43;3.40;;;14.40;99.90;;;;;;5118227;28;20455;-61
2023/08/27 06:09:05;;;;;;;4.53;4.03;;;14.40;99.90;;;;;;5117746;28;20491;-59
2023/08/27 06:11:33;;;;;;;3.70;3.10;;;14.40;99.90;;;;;;5117107;28;20496;-61
2023/08/27 06:14:01;;;;;;;5.87;3.70;;;14.50;99.90;;;;;;5118272;28;20728;-60
2023/08/27 06:16:29;;;;;;;5.20;3.60;;;14.40;99.90;;;;;;5117273;28;20460;-63
2023/08/27 06:18:56;;;;;;;3.87;3.27;;;14.50;99.90;;;;;;5117241;28;20512;-64
2023/08/27 06:21:24;;;;;;;4.37;3.20;;;14.50;99.90;;;;;;5117033;28;21011;-65
2023/08/27 06:23:51;;;;;;;5.07;3.60;;;14.50;99.90;;;;;;5118097;28;20888;-64
2023/08/27 06:26:18;;;;;;;4.53;3.50;;;14.50;99.90;;;;;;5117344;28;20490;-66
2023/08/27 06:28:46;;;;;;;6.00;3.53;;;14.50;99.90;;;;;;5117432;28;20459;-66
2023/08/27 06:31:15;;;;;;;4.37;3.40;;;14.60;99.90;;;;;;5116961;28;20460;-67
2023/08/27 06:33:42;;;;;;;6.57;4.37;;;14.60;99.90;;;;;;5117746;28;20465;-67
2023/08/27 06:36:09;;;;;;;7.60;3.77;;;14.60;99.90;;;;;;5117315;28;20574;-67
2023/08/27 06:38:36;;;;;;;3.80;3.40;;;14.70;99.90;;;;;;5118092;28;20451;-68
2023/08/27 06:41:04;;;;;;;9.33;3.53;;;14.90;99.90;;;;;;5108451;28;20571;-68
2023/08/27 06:43:31;;;;;;;4.13;3.30;;;15.00;99.90;;;;;;5096742;28;20464;-67
2023/08/27 06:45:58;;;;;;;4.77;4.27;;;15.00;99.90;;;;;;5097241;28;20834;-67
2023/08/27 06:48:27;;;;;;;5.60;3.40;;;15.00;99.90;;;;;;5096905;28;20488;-66
2023/08/27 06:50:54;;;;;;;5.20;3.50;;;15.10;99.90;;;;;;5102023;28;20462;-67
2023/08/27 06:53:21;;;;;;;6.07;3.73;;;15.10;99.90;;;;;;5117240;28;20558;-67
2023/08/27 06:55:49;;;;;;;4.33;3.20;;;15.10;99.90;;;;;;5104288;28;20460;-67
2023/08/27 06:58:16;;;;;;;3.57;3.27;;;15.10;99.90;;;;;;5096996;28;20500;-67
2023/08/27 07:00:44;;;;;;;4.97;3.33;;;15.20;99.90;;;;;;5095243;28;20527;-66
2023/08/27 07:03:12;;;;;;;4.63;3.77;;;15.20;99.90;;;;;;5096258;28;20464;-65
2023/08/27 07:05:41;;;;;;;4.30;3.30;;;15.20;99.90;;;;;;5097980;28;20759;-63
2023/08/27 07:08:08;;;;;;;4.20;3.20;;;15.30;99.90;;;;;;5097362;28;20492;-64
2023/08/27 07:10:35;;;;;;;4.73;3.37;;;15.30;99.90;;;;;;5096562;28;20449;-64
2023/08/27 07:13:04;;;;;;;4.63;3.33;;;15.40;99.90;;;;;;5095464;28;20452;-64
2023/08/27 07:15:31;;;;;;;5.47;4.30;;;15.40;99.90;;;;;;5094591;28;20559;-64
2023/08/27 07:17:58;;;;;;;5.00;3.60;;;15.50;99.90;;;;;;5112000;28;20460;-65
2023/08/27 07:20:26;;;;;;;5.03;3.70;;;15.70;99.90;;;;;;5115198;28;20460;-66
2023/08/27 07:22:55;;;;;;;5.67;3.73;;;15.80;99.90;;;;;;5115339;28;20460;-65
2023/08/27 07:25:23;;;;;;;5.70;3.50;;;16.00;99.90;;;;;;5115527;28;20549;-66
2023/08/27 07:27:50;;;;;;;4.93;3.30;;;16.00;99.90;;;;;;5114987;28;20470;-67
2023/08/27 07:30:18;;;;;;;6.33;3.23;;;16.10;99.90;;;;;;5121051;28;20571;-67
2023/08/27 07:32:45;;;;;;;4.63;3.70;;;16.10;99.90;;;;;;5119314;28;20551;-67
2023/08/27 07:35:12;;;;;;;4.40;3.70;;;16.10;99.90;;;;;;5117777;28;20521;-67
2023/08/27 07:37:39;;;;;;;5.30;3.70;;;16.30;99.90;;;;;;5110613;28;20464;-67
2023/08/27 07:40:10;;;;;;;5.10;3.67;;;16.50;99.90;;;;;;5099560;28;20521;-68
2023/08/27 07:42:38;;;;;;;4.93;3.83;;;16.80;99.90;;;;;;5098901;28;20488;-67
2023/08/27 07:45:06;;;;;;;4.10;3.70;;;17.20;99.90;;;;;;5101112;28;20481;-67
2023/08/27 07:47:34;;;;;;;5.00;3.37;;;17.50;99.90;;;;;;5081426;28;20509;-68
2023/08/27 07:50:01;;;;;;;6.50;3.77;;;17.60;99.90;;;;;;5081927;28;20461;-67
2023/08/27 07:52:28;;;;;;;4.00;3.40;;;17.70;58.50;;;;;;5091109;28;20464;-67
2023/08/27 07:54:55;;;;;;;3.87;3.13;;;17.70;1.00;;;;;;5103896;28;20519;-68
2023/08/27 07:57:24;;;;;;;5.30;3.63;;;17.80;1.00;;;;;;5104954;28;20461;-68
2023/08/27 07:59:51;;;;;;;4.50;3.60;;;17.70;1.00;;;;;;5104282;28;20456;-67
2023/08/27 08:02:19;;;;;;;4.33;3.30;;;17.70;99.90;;;;;;5101318;28;20600;-67
2023/08/27 08:04:46;;;;;;;6.07;3.47;;;17.80;91.40;;;;;;5100580;28;20468;-67
2023/08/27 08:07:14;;;;;;;3.60;3.30;;;17.80;99.90;;;;;;5100632;28;20835;-67
2023/08/27 08:09:41;;;;;;;4.00;3.30;;;18.00;99.90;;;;;;5100090;28;20456;-66
2023/08/27 08:12:08;;;;;;;5.17;3.77;;;18.00;1.00;;;;;;5099500;28;20492;-66
2023/08/27 08:14:37;;;;;;;4.00;3.50;;;17.90;34.30;;;;;;5098877;28;20460;-66
2023/08/27 08:17:05;;;;;;;4.13;3.73;;;17.90;1.00;;;;;;5099400;28;20507;-67
2023/08/27 08:19:32;;;;;;;10.37;4.10;;;17.80;1.00;;;;;;5098716;28;20467;-66
2023/08/27 08:21:59;;;;;;;3.80;3.50;;;17.80;62.30;;;;;;5098693;28;20463;-66
2023/08/27 08:24:27;;;;;;;7.90;4.60;;;17.90;28.10;;;;;;5098977;28;20544;-66
2023/08/27 08:26:55;;;;;;;3.83;3.53;;;17.90;19.70;;;;;;5099227;28;20462;-66
2023/08/27 08:29:22;;;;;;;3.63;3.33;;;17.90;39.00;;;;;;5099285;28;20780;-66
2023/08/27 08:31:51;;;;;;;5.97;3.93;;;17.80;1.00;;;;;;5099562;28;20456;-66
2023/08/27 08:34:18;;;;;;;4.03;3.20;;;17.80;99.90;;;;;;5099299;28;20801;-67
2023/08/27 08:36:45;;;;;;;6.10;3.40;;;17.80;99.90;;;;;;5115315;28;21030;-66
2023/08/27 08:39:12;;;;;;;4.60;3.53;;;17.70;99.90;;;;;;5117974;28;20470;-66
2023/08/27 08:41:44;;;;;;;4.63;3.80;;;17.80;99.90;;;;;;5118651;28;21014;-66
2023/08/27 08:44:20;;;;;;;5.40;3.97;;;17.70;99.90;;;;;;5118726;28;20555;-66
2023/08/27 08:46:52;;;;;;;5.20;3.70;;;17.70;99.90;;;;;;5118360;28;20459;-66
2023/08/27 08:49:22;;;;;;;5.37;3.90;;;17.80;99.90;;;;;;5118325;28;20494;-66
2023/08/27 08:51:55;;;;;;;4.03;3.60;;;17.90;99.90;;;;;;5118679;28;20546;-66
2023/08/27 08:54:26;;;;;;;4.33;3.67;;;17.80;1.00;;;;;;5119080;28;20555;-66
2023/08/27 08:57:00;;;;;;;4.20;3.50;;;17.90;35.40;;;;;;5119233;28;20480;-66
2023/08/27 08:59:29;;;;;;;6.40;3.60;;;17.90;1.00;;;;;;5118714;28;20501;-65
2023/08/27 09:01:59;;;;;;;3.90;3.50;;;18.00;1.00;;;;;;5118189;28;20932;-65
2023/08/27 09:04:27;;;;;;;4.90;3.57;;;18.20;1.00;;;;;;5098740;28;20835;-65
2023/08/27 09:06:55;;;;;;;3.70;3.30;;;18.20;1.00;;;;;;5099015;28;20514;-64
2023/08/27 09:09:24;;;;;;;4.20;2.90;;;18.30;99.90;;;;;;5098323;28;20458;-64
2023/08/27 09:11:52;;;;;;;6.30;3.10;;;18.40;99.90;;;;;;5108004;28;20512;-64
2023/08/27 09:14:21;;;;;;;4.60;3.50;;;18.60;99.90;;;;;;5117645;28;20466;-65
2023/08/27 09:16:48;;;;;;;4.00;3.10;;;18.50;92.40;;;;;;5118528;28;20516;-64
2023/08/27 09:19:16;;;;;;;4.73;3.43;;;18.40;14.50;;;;;;5118432;28;20550;-64
2023/08/27 09:21:44;;;;;;;3.80;2.80;;;18.40;25.70;;;;;;5117377;28;20486;-64
2023/08/27 09:24:12;;;;;;;4.30;3.30;;;18.50;45.90;;;;;;5116858;28;20789;-62
2023/08/27 09:26:41;;;;;;;4.93;2.97;;;18.40;1.00;;;;;;5117762;28;20956;-63
2023/08/27 09:29:09;;;;;;;3.40;3.10;;;18.40;1.00;;;;;;5118433;28;20458;-64
2023/08/27 09:31:38;;;;;;;3.40;2.70;;;18.30;1.00;;;;;;5117073;28;20451;-63
2023/08/27 09:34:05;;;;;;;3.83;2.90;;;18.50;1.00;;;;;;5116831;28;20896;-63
2023/08/27 09:36:36;;;;;;;3.23;2.50;;;18.50;99.90;;;;;;5107420;28;20499;-64
2023/08/27 09:39:07;;;;;;;3.23;2.53;;;18.20;99.90;;;;;;5098910;28;20516;-63
2023/08/27 09:41:38;;;;;;;2.77;2.50;;;18.10;99.90;;;;;;5097238;28;20492;-63
2023/08/27 09:44:06;;;;;;;3.80;2.60;;;18.20;99.90;;;;;;5096928;28;20492;-63
2023/08/27 09:46:34;;;;;;;3.53;3.23;;;18.10;99.90;;;;;;5096849;28;20932;-62
2023/08/27 09:49:04;;;;;;;5.10;3.33;;;18.10;99.90;;;;;;5097630;28;21194;-63
2023/08/27 09:51:34;;;;;;;4.97;2.90;;;18.40;99.90;;;;;;5098331;28;20483;-62
2023/08/27 09:54:02;;;;;;;3.33;3.03;;;18.40;1.00;;;;;;5097049;28;20558;-61
2023/08/27 09:56:29;;;;;;;3.93;3.47;;;18.70;99.90;;;;;;5097327;28;20525;-61
2023/08/27 09:59:05;;;;;;;3.20;2.90;;;19.20;99.90;;;;;;5097241;28;20563;-62
2023/08/27 10:01:34;;;;;;;3.67;2.90;;;19.40;1.00;;;;;;5102601;28;20816;-63
2023/08/27 10:04:07;;;;;;;4.43;3.00;;;19.40;1.00;;;;;;5107615;28;20457;-62
2023/08/27 10:06:39;;;;;;;4.03;3.00;;;19.20;99.90;;;;;;5114926;28;20469;-62
2023/08/27 10:09:07;;;;;;;3.50;3.00;;;19.10;99.90;;;;;;5117871;28;20848;-61
2023/08/27 10:11:35;;;;;;;3.67;2.90;;;19.00;99.90;;;;;;5117781;28;20762;-61
2023/08/27 10:14:03;;;;;;;3.57;3.27;;;18.90;1.00;;;;;;5117663;28;20463;-61
2023/08/27 10:16:31;;;;;;;3.80;2.93;;;19.00;1.00;;;;;;5102964;28;20483;-62
2023/08/27 10:19:01;;;;;;;3.70;2.50;;;19.00;1.00;;;;;;5096956;28;20496;-61
2023/08/27 10:21:28;;;;;;;3.17;2.83;;;19.10;1.00;;;;;;5097200;28;20806;-61
2023/08/27 10:23:59;;;;;;;3.23;2.80;;;19.50;1.00;;;;;;5111486;28;20538;-61
2023/08/27 10:26:26;;;;;;;6.53;3.27;;;19.90;99.90;;;;;;5115851;28;20935;-61
2023/08/27 10:28:54;;;;;;;3.17;2.87;;;20.40;1.00;;;;;;5117468;28;20954;-61
2023/08/27 10:31:21;;;;;;;3.30;3.00;;;21.10;99.90;;;;;;5117058;28;20451;-60
2023/08/27 10:33:49;;;;;;;4.30;2.70;;;21.50;99.90;;;;;;5117577;28;20457;-61
2023/08/27 10:36:24;;;;;;;4.40;3.23;;;22.10;99.90;;;;;;5115088;28;20480;-61
2023/08/27 10:38:53;;;;;;;5.67;3.30;;;22.00;99.90;;;;;;5117651;28;20721;-61
2023/08/27 10:41:24;;;;;;;4.70;3.50;;;21.50;99.90;;;;;;5115424;28;20741;-61
2023/08/27 10:43:52;;;;;;;3.20;2.90;;;21.30;99.90;;;;;;5117596;28;20559;-62
2023/08/27 10:46:24;;;;;;;3.27;2.97;;;21.60;99.90;;;;;;5115190;28;20473;-61
2023/08/27 10:48:54;;;;;;;3.30;3.00;;;22.50;99.90;;;;;;5116621;28;20460;-61
2023/08/27 10:51:28;;;;;;;3.53;2.83;;;23.10;99.90;;;;;;5117135;28;20459;-61
2023/08/27 10:53:59;;;;;;;4.20;3.00;;;23.10;99.90;;;;;;5117548;28;20944;-61
2023/08/27 10:56:30;;;;;;;3.77;3.03;;;23.10;99.90;;;;;;5114925;28;20487;-60
2023/08/27 10:58:59;;;;;;;3.10;2.63;;;23.40;99.90;;;;;;5113496;28;20459;-60
2023/08/27 11:01:26;;;;;;;2.90;2.60;;;23.70;99.90;;;;;;5096942;28;20460;-60
2023/08/27 11:03:58;;;;;;;3.67;3.23;;;23.70;88.80;;;;;;5098506;28;20523;-62
2023/08/27 11:06:44;;;;;;;5.23;3.27;;;23.70;56.70;;;;;;5080352;28;20511;-62
2023/08/27 11:09:17;;;;;;;3.83;3.27;;;23.00;19.70;;;;;;5080389;28;20875;-62
2023/08/27 11:11:49;;;;;;;5.13;4.07;;;22.90;18.20;;;;;;5119419;28;20486;-62
2023/08/27 11:14:19;;;;;;;5.70;3.17;;;22.60;99.90;;;;;;5121112;28;20549;-62
2023/08/27 11:16:48;;;;;;;3.50;3.20;;;22.30;99.90;;;;;;5120416;28;20459;-62
2023/08/27 11:19:25;;;;;;;3.80;3.30;;;22.30;91.50;;;;;;5120515;28;20455;-63
2023/08/27 11:21:53;;;;;;;4.47;3.60;;;22.70;99.90;;;;;;5118691;28;20505;-64
2023/08/27 11:24:24;;;;;;;3.43;2.93;;;22.90;99.90;;;;;;5118587;28;20459;-63
2023/08/27 11:26:54;;;;;;;4.63;4.30;;;23.30;99.90;;;;;;5120440;28;20802;-63
2023/08/27 11:29:24;;;;;;;6.57;4.17;;;23.80;99.90;;;;;;5120783;28;20513;-63
2023/08/27 11:31:51;;;;;;;4.53;4.13;;;23.80;99.90;;;;;;5119220;28;20478;-62
2023/08/27 11:34:19;;;;;;;5.13;4.70;;;23.40;99.90;;;;;;5116698;28;20558;-64
2023/08/27 11:36:49;;;;;;;3.53;3.23;;;23.00;99.90;;;;;;5118367;28;20510;-64
2023/08/27 11:39:17;;;;;;;3.77;3.37;;;22.50;36.10;;;;;;5119615;28;20459;-62
2023/08/27 11:41:45;;;;;;;4.30;3.80;;;21.90;17.40;;;;;;5119633;28;20447;-63
2023/08/27 11:44:13;;;;;;;4.70;3.40;;;21.30;99.90;;;;;;5120285;28;20881;-63
2023/08/27 11:46:41;;;;;;;3.93;3.40;;;21.00;99.90;;;;;;5108713;28;20538;-63
2023/08/27 11:49:12;;;;;;;3.97;3.60;;;20.70;99.90;;;;;;5099966;28;20467;-63
2023/08/27 11:51:41;;;;;;;3.60;3.20;;;20.70;99.90;;;;;;5099999;28;20536;-64
2023/08/27 11:54:10;;;;;;;3.77;3.47;;;20.60;99.90;;;;;;5099104;28;20464;-64
2023/08/27 11:56:39;;;;;;;3.73;3.03;;;20.60;99.90;;;;;;5102845;28;20462;-64
2023/08/27 11:59:06;;;;;;;3.80;3.50;;;20.60;99.90;;;;;;5120106;28;20782;-65
2023/08/27 12:01:35;;;;;;;3.53;3.23;;;20.60;99.90;;;;;;5109074;28;20482;-64
2023/08/27 12:04:04;;;;;;;3.07;2.87;;;21.00;99.90;;;;;;5099866;28;20587;-63
2023/08/27 12:06:31;;;;;;;3.07;2.40;;;21.60;99.90;;;;;;5100086;28;20487;-63
2023/08/27 12:09:00;;;;;;;3.40;3.10;;;22.50;99.90;;;;;;5099587;28;20492;-65
2023/08/27 12:11:28;;;;;;;4.30;2.90;;;23.10;99.90;;;;;;5099922;28;20471;-64
2023/08/27 12:13:59;;;;;;;3.20;2.30;;;23.40;99.90;;;;;;5098888;28;20496;-64
2023/08/27 12:16:31;;;;;;;3.63;2.77;;;23.50;99.90;;;;;;5103977;28;20462;-64
2023/08/27 12:19:05;;;;;;;3.73;3.43;;;23.90;99.90;;;;;;5119334;28;20553;-64
2023/08/27 12:21:37;;;;;;;4.10;2.93;;;24.30;99.90;;;;;;5118198;28;20462;-65
2023/08/27 12:24:06;;;;;;;3.70;3.40;;;24.50;99.90;;;;;;5103358;28;20511;-63
2023/08/27 12:26:34;;;;;;;3.00;2.70;;;24.60;99.90;;;;;;5089414;28;20473;-63
2023/08/27 12:29:02;;;;;;;4.00;3.00;;;24.70;99.90;;;;;;5098575;28;20823;-63
2023/08/27 12:31:29;;;;;;;3.77;3.33;;;24.70;99.90;;;;;;5103368;28;20820;-63
2023/08/27 12:34:00;;;;;;;3.10;2.80;;;25.00;99.90;;;;;;5098188;28;20567;-63
2023/08/27 12:36:31;;;;;;;4.60;3.60;;;24.90;99.90;;;;;;5117081;27;20485;-63
2023/08/27 12:38:58;;;;;;;3.80;3.10;;;24.30;99.90;;;;;;5116480;28;20482;-63
2023/08/27 12:41:27;;;;;;;3.33;3.03;;;23.80;99.90;;;;;;5118489;27;20468;-63
2023/08/27 12:43:55;;;;;;;3.50;3.20;;;23.40;99.90;;;;;;5112787;28;20935;-63
2023/08/27 12:46:24;;;;;;;4.17;2.80;;;23.40;99.90;;;;;;5116402;28;20476;-63
2023/08/27 12:48:51;;;;;;;4.67;2.97;;;23.90;99.90;;;;;;5121739;27;20545;-65
2023/08/27 12:51:18;;;;;;;3.93;2.97;;;24.40;99.90;;;;;;5126150;27;20494;-63
2023/08/27 12:53:47;;;;;;;3.20;2.90;;;24.30;99.90;;;;;;5122073;27;20506;-63